Time;durP1;ratioP1;P1;durP2;ratioP2;P2;SDS_P1;SDS_P2;PMS_P1;PMS_P2;Temp;Humidity;BMP_temperature;BMP_pressure;BME280_temperature;BME280_humidity;BME280_pressure;Samples;Min_cycle;Max_cycle;Signal;HPM_P1;HPM_P2
2023/12/10 00:01:24;;;;;;;94.40;28.43;;;;;;;;;;5075932;28;20428;-67
2023/12/10 00:03:51;;;;;;;108.50;30.80;;;;;;;;;;5076468;28;20477;-67
2023/12/10 00:06:18;;;;;;;90.63;28.27;;;;;;;;;;5076388;28;20411;-67
2023/12/10 00:08:45;;;;;;;113.20;29.17;;;;;;;;;;5075966;28;20481;-67
2023/12/10 00:11:11;;;;;;;103.87;29.40;;;;;;;;;;5076543;28;20984;-67
2023/12/10 00:13:38;;;;;;;133.63;31.27;;;;;;;;;;5093576;28;20938;-66
2023/12/10 00:16:05;;;;;;;132.53;30.07;;;;;;;;;;5076514;28;20876;-67
2023/12/10 00:18:32;;;;;;;118.67;29.10;;;;;;;;;;5076282;28;20469;-67
2023/12/10 00:20:59;;;;;;;124.07;29.90;;;;;;;;;;5094979;28;20428;-67
2023/12/10 00:23:27;;;;;;;132.30;32.10;;;;;;;;;;5092553;28;20550;-67
2023/12/10 00:25:54;;;;;;;104.60;29.37;;;;;;;;;;5059087;28;20994;-67
2023/12/10 00:28:21;;;;;;;113.07;29.00;;;;;;;;;;5059172;28;20914;-67
2023/12/10 00:30:47;;;;;;;105.70;29.40;;;;;;;;;;5093835;28;20411;-67
2023/12/10 00:33:15;;;;;;;112.63;29.03;;;;;;;;;;5075562;28;20489;-67
2023/12/10 00:35:59;;;;;;;107.43;29.27;;;;;;;;;;5078384;28;20384;-67
2023/12/10 00:38:27;;;;;;;129.97;31.23;;;;;;;;;;5076262;28;20419;-67
2023/12/10 00:40:54;;;;;;;125.70;31.43;;;;;;;;;;5093938;28;20430;-67
2023/12/10 00:43:20;;;;;;;110.40;28.17;;;;;;;;;;5059381;28;20435;-67
2023/12/10 00:45:47;;;;;;;152.87;31.43;;;;;;;;;;5093428;28;20419;-67
2023/12/10 00:48:14;;;;;;;146.53;32.77;;;;;;;;;;5058993;28;20415;-67
2023/12/10 00:50:41;;;;;;;136.37;31.97;;;;;;;;;;5058714;28;20772;-67
2023/12/10 00:53:08;;;;;;;141.53;33.10;;;;;;;;;;5074449;28;20435;-67
2023/12/10 00:55:35;;;;;;;146.90;30.87;;;;;;;;;;5075609;28;20435;-67
2023/12/10 00:58:01;;;;;;;162.73;33.13;;;;;;;;;;5075381;28;20471;-67
2023/12/10 01:00:28;;;;;;;148.53;30.93;;;;;;;;;;5093321;28;20423;-67
2023/12/10 01:03:12;;;;;;;150.50;32.20;;;;;;;;;;5075677;28;20894;-67
2023/12/10 01:05:39;;;;;;;155.57;30.40;;;;;;;;;;5092221;28;20422;-67
2023/12/10 01:08:06;;;;;;;145.53;29.33;;;;;;;;;;5093538;28;20548;-67
2023/12/10 01:10:35;;;;;;;104.30;29.17;;;;;;;;;;5093429;28;20428;-67
2023/12/10 01:13:03;;;;;;;146.53;33.73;;;;;;;;;;5058849;28;20427;-67
2023/12/10 01:52:05;;;;;;;139.03;27.60;;;;;;;;;;5055929;28;20538;-67
2023/12/10 01:54:31;;;;;;;131.43;26.37;;;;;;;;;;5055033;28;20493;-67
2023/12/10 01:57:15;;;;;;;219.50;29.70;;;;;;;;;;5055091;28;20895;-67
2023/12/10 01:59:42;;;;;;;145.50;26.63;;;;;;;;;;5055833;28;20528;-67
2023/12/10 02:02:12;;;;;;;135.27;29.43;;;;;;;;;;5055933;28;20487;-67
2023/12/10 02:04:40;;;;;;;141.77;27.87;;;;;;;;;;5038860;28;20412;-67
2023/12/10 02:07:06;;;;;;;149.07;27.63;;;;;;;;;;5055896;28;20520;-67
2023/12/10 02:09:33;;;;;;;118.00;27.27;;;;;;;;;;5054451;28;20430;-67
2023/12/10 02:12:01;;;;;;;127.37;26.33;;;;;;;;;;5056168;28;20426;-67
2023/12/10 02:14:28;;;;;;;178.80;31.07;;;;;;;;;;5070761;28;20459;-67
2023/12/10 02:16:55;;;;;;;120.30;28.13;;;;;;;;;;5037756;28;20416;-67
2023/12/10 02:19:21;;;;;;;136.07;27.57;;;;;;;;;;5054238;28;20421;-67
2023/12/10 02:21:48;;;;;;;109.67;25.37;;;;;;;;;;5054628;28;20422;-67
2023/12/10 02:24:16;;;;;;;154.00;27.20;;;;;;;;;;5054367;28;20479;-67
2023/12/10 02:26:42;;;;;;;143.13;26.27;;;;;;;;;;5054260;28;20409;-67
2023/12/10 02:29:09;;;;;;;106.97;27.07;;;;;;;;;;5055371;28;20523;-67
2023/12/10 02:31:36;;;;;;;201.73;28.67;;;;;;;;;;5070765;28;20420;-67
2023/12/10 02:34:03;;;;;;;102.80;24.70;;;;;;;;;;5070478;28;20473;-67
2023/12/10 02:36:29;;;;;;;175.83;27.87;;;;;;;;;;5055282;28;20434;-67
2023/12/10 02:38:57;;;;;;;171.33;27.13;;;;;;;;;;5055100;28;20900;-67
2023/12/10 02:41:23;;;;;;;174.00;29.90;;;;;;;;;;5054540;28;20524;-67
2023/12/10 02:43:50;;;;;;;181.03;28.13;;;;;;;;;;5055357;28;20432;-67
2023/12/10 02:46:16;;;;;;;97.40;25.93;;;;;;;;;;5054896;28;20413;-67
2023/12/10 02:48:43;;;;;;;117.03;25.53;;;;;;;;;;5054095;28;20436;-67
2023/12/10 02:51:10;;;;;;;172.90;27.43;;;;;;;;;;5053767;28;20544;-67
2023/12/10 02:53:37;;;;;;;174.73;28.73;;;;;;;;;;5054583;28;20820;-67
2023/12/10 02:56:03;;;;;;;181.93;27.27;;;;;;;;;;5070069;28;20417;-67
2023/12/10 02:58:30;;;;;;;151.37;29.50;;;;;;;;;;5054650;28;20520;-67
2023/12/10 03:00:57;;;;;;;182.17;28.63;;;;;;;;;;5053936;28;20504;-67
2023/12/10 03:03:23;;;;;;;286.67;28.93;;;;;;;;;;5053890;28;20528;-67
2023/12/10 03:05:50;;;;;;;193.40;29.70;;;;;;;;;;5070170;28;20453;-67
2023/12/10 03:08:17;;;;;;;170.13;27.90;;;;;;;;;;5070072;28;20441;-67
2023/12/10 03:10:44;;;;;;;200.70;30.00;;;;;;;;;;5037101;28;20467;-67
2023/12/10 03:13:10;;;;;;;174.77;28.93;;;;;;;;;;5069652;28;20484;-67
2023/12/10 03:15:54;;;;;;;204.73;30.77;;;;;;;;;;5053972;28;20784;-67
2023/12/10 03:18:21;;;;;;;207.17;29.10;;;;;;;;;;5054258;28;20781;-67
2023/12/10 03:21:05;;;;;;;187.23;28.63;;;;;;;;;;5054921;28;20409;-67
2023/12/10 03:23:32;;;;;;;181.63;28.77;;;;;;;;;;5053459;28;20425;-67
2023/12/10 03:25:59;;;;;;;285.73;32.33;;;;;;;;;;5053597;28;20452;-67
2023/12/10 03:28:25;;;;;;;277.43;31.43;;;;;;;;;;5054366;28;20517;-67
2023/12/10 03:30:52;;;;;;;230.27;30.90;;;;;;;;;;5054088;28;20425;-67
2023/12/10 03:33:19;;;;;;;265.07;31.13;;;;;;;;;;5053920;28;20928;-67
2023/12/10 03:35:46;;;;;;;230.27;29.23;;;;;;;;;;5052892;28;20492;-67
2023/12/10 03:38:12;;;;;;;242.43;29.97;;;;;;;;;;5052828;28;20429;-67
2023/12/10 03:40:39;;;;;;;224.93;30.27;;;;;;;;;;5069826;28;20430;-67
2023/12/10 03:43:06;;;;;;;145.10;27.07;;;;;;;;;;5053360;28;20490;-67
2023/12/10 03:45:32;;;;;;;214.07;30.53;;;;;;;;;;5052978;28;20520;-68
2023/12/10 03:48:16;;;;;;;175.40;27.70;;;;;;;;;;5053844;28;20381;-67
2023/12/10 03:50:45;;;;;;;239.97;31.90;;;;;;;;;;5068976;28;20480;-67
2023/12/10 03:53:12;;;;;;;158.23;30.57;;;;;;;;;;5054323;28;20461;-68
2023/12/10 03:55:38;;;;;;;251.73;33.47;;;;;;;;;;5053599;28;20456;-68
2023/12/10 03:58:05;;;;;;;225.03;32.53;;;;;;;;;;5069491;28;20440;-68
2023/12/10 04:00:32;;;;;;;266.50;31.80;;;;;;;;;;5052709;28;20413;-67
2023/12/10 04:02:59;;;;;;;189.27;31.37;;;;;;;;;;5053744;28;20429;-67
2023/12/10 04:05:25;;;;;;;203.53;30.87;;;;;;;;;;5053482;28;20475;-68
2023/12/10 04:07:52;;;;;;;291.47;35.03;;;;;;;;;;5069269;28;20463;-67
2023/12/10 04:10:19;;;;;;;251.97;32.30;;;;;;;;;;5053413;28;20463;-67
2023/12/10 04:12:45;;;;;;;245.20;33.43;;;;;;;;;;5053725;28;20537;-67
2023/12/10 04:15:12;;;;;;;166.03;32.70;;;;;;;;;;5035658;28;20523;-67
2023/12/10 04:17:38;;;;;;;265.27;35.43;;;;;;;;;;5053663;28;20756;-67
2023/12/10 04:20:06;;;;;;;193.70;34.63;;;;;;;;;;5053804;28;20425;-67
2023/12/10 04:22:50;;;;;;;135.97;33.60;;;;;;;;;;5067114;28;20380;-67
2023/12/10 04:25:16;;;;;;;227.20;35.20;;;;;;;;;;5052394;28;20922;-67
2023/12/10 04:27:43;;;;;;;141.90;31.60;;;;;;;;;;5054281;28;20457;-67
2023/12/10 04:30:10;;;;;;;118.67;29.97;;;;;;;;;;5068984;28;20453;-67
2023/12/10 04:32:36;;;;;;;145.27;36.60;;;;;;;;;;5052662;28;20421;-67
2023/12/10 04:35:03;;;;;;;156.97;35.23;;;;;;;;;;5068673;28;20469;-67
2023/12/10 04:37:30;;;;;;;174.00;36.83;;;;;;;;;;5053131;28;20457;-67
2023/12/10 04:39:57;;;;;;;136.57;35.53;;;;;;;;;;5053480;28;20421;-67
2023/12/10 04:42:24;;;;;;;140.73;35.87;;;;;;;;;;5052581;28;20540;-67
2023/12/10 04:44:51;;;;;;;146.63;36.07;;;;;;;;;;5068765;28;20441;-67
2023/12/10 04:47:18;;;;;;;141.87;34.50;;;;;;;;;;5052151;28;20436;-67
2023/12/10 04:50:03;;;;;;;148.57;37.97;;;;;;;;;;5058007;28;20450;-67
2023/12/10 04:52:30;;;;;;;143.27;38.00;;;;;;;;;;5055320;28;20427;-67
2023/12/10 04:54:57;;;;;;;136.17;37.67;;;;;;;;;;5073720;28;20488;-67
2023/12/10 04:57:24;;;;;;;121.67;35.87;;;;;;;;;;5059243;28;20420;-67
2023/12/10 04:59:51;;;;;;;136.13;36.93;;;;;;;;;;5076276;28;20767;-67
2023/12/10 05:02:35;;;;;;;145.93;38.73;;;;;;;;;;5077414;28;20388;-67
2023/12/10 05:05:03;;;;;;;127.47;36.13;;;;;;;;;;5076831;28;20771;-67
2023/12/10 05:07:47;;;;;;;127.87;37.90;;;;;;;;;;5061805;28;20396;-67
2023/12/10 05:10:14;;;;;;;142.50;37.73;;;;;;;;;;5058974;28;20416;-67
2023/12/10 05:12:40;;;;;;;127.40;39.73;;;;;;;;;;5058924;28;20451;-68
2023/12/10 05:15:07;;;;;;;119.17;38.83;;;;;;;;;;5076381;28;20975;-67
2023/12/10 05:17:34;;;;;;;126.47;38.90;;;;;;;;;;5076937;28;20486;-67
2023/12/10 05:20:02;;;;;;;124.23;39.47;;;;;;;;;;5075562;28;20432;-67
2023/12/10 05:22:28;;;;;;;142.30;40.87;;;;;;;;;;5076731;28;20424;-67
2023/12/10 05:24:56;;;;;;;132.37;39.07;;;;;;;;;;5077100;28;20420;-67
2023/12/10 05:27:23;;;;;;;141.20;39.67;;;;;;;;;;5075507;28;20929;-67
2023/12/10 05:29:50;;;;;;;127.43;39.30;;;;;;;;;;5042038;28;20887;-67
2023/12/10 05:32:16;;;;;;;136.03;41.67;;;;;;;;;;5077160;28;20747;-68
2023/12/10 05:35:00;;;;;;;137.90;39.80;;;;;;;;;;5061271;28;20817;-67
2023/12/10 05:37:27;;;;;;;129.40;42.63;;;;;;;;;;5077091;28;20423;-68
2023/12/10 05:39:54;;;;;;;141.70;41.13;;;;;;;;;;5076100;28;20466;-67
2023/12/10 05:42:20;;;;;;;135.03;41.13;;;;;;;;;;5058904;28;20412;-67
2023/12/10 05:44:48;;;;;;;123.33;41.23;;;;;;;;;;5041929;28;20436;-68
2023/12/10 05:47:32;;;;;;;136.47;40.17;;;;;;;;;;5060802;28;20883;-67
2023/12/10 05:49:59;;;;;;;128.40;41.70;;;;;;;;;;5075939;28;20465;-67
2023/12/10 05:52:44;;;;;;;118.10;38.03;;;;;;;;;;5047042;28;20401;-67
2023/12/10 05:55:11;;;;;;;120.57;38.37;;;;;;;;;;5076127;28;20923;-67
2023/12/10 05:57:55;;;;;;;104.00;37.63;;;;;;;;;;5076035;28;20397;-67
2023/12/10 06:00:22;;;;;;;116.77;39.97;;;;;;;;;;5058194;28;20413;-67
2023/12/10 06:03:07;;;;;;;102.17;37.77;;;;;;;;;;5076024;28;20384;-67
2023/12/10 06:05:33;;;;;;;99.07;37.77;;;;;;;;;;5075690;28;20417;-67
2023/12/10 06:08:00;;;;;;;101.87;36.73;;;;;;;;;;5041492;28;20539;-68
2023/12/10 06:10:26;;;;;;;100.50;38.23;;;;;;;;;;5074568;28;20431;-67
2023/12/10 06:12:53;;;;;;;104.60;40.20;;;;;;;;;;5075657;28;20442;-67
2023/12/10 06:15:20;;;;;;;99.40;38.00;;;;;;;;;;5075423;28;20495;-67
2023/12/10 06:17:47;;;;;;;96.03;36.17;;;;;;;;;;5058066;28;20447;-67
2023/12/10 06:20:13;;;;;;;105.67;40.40;;;;;;;;;;5041295;28;20526;-67
2023/12/10 06:22:57;;;;;;;101.40;40.47;;;;;;;;;;5060260;28;20424;-67
2023/12/10 06:25:24;;;;;;;117.63;46.30;;;;;;;;;;5075493;28;20422;-67
2023/12/10 06:28:08;;;;;;;129.00;49.37;;;;;;;;;;5075859;28;20373;-67
2023/12/10 06:30:35;;;;;;;122.30;51.20;;;;;;;;;;5057243;28;20432;-68
2023/12/10 06:33:19;;;;;;;108.00;42.60;;;;;;;;;;5060554;28;21023;-68
2023/12/10 06:35:46;;;;;;;100.17;41.00;;;;;;;;;;5075267;28;20550;-68
2023/12/10 06:38:13;;;;;;;94.87;37.57;;;;;;;;;;5075584;28;20424;-68
2023/12/10 06:40:39;;;;;;;87.40;37.53;;;;;;;;;;5074780;28;20520;-68
2023/12/10 06:43:07;;;;;;;97.57;37.97;;;;;;;;;;5057997;28;20956;-68
2023/12/10 06:45:34;;;;;;;96.30;39.30;;;;;;;;;;5075500;28;20876;-68
2023/12/10 06:48:01;;;;;;;91.13;36.07;;;;;;;;;;5057237;28;20436;-68
2023/12/10 06:50:28;;;;;;;98.40;37.60;;;;;;;;;;5057121;28;20452;-68
2023/12/10 06:52:54;;;;;;;90.83;36.20;;;;;;;;;;5074703;28;20429;-68
2023/12/10 06:55:21;;;;;;;90.27;36.47;;;;;;;;;;5056795;28;20585;-68
2023/12/10 06:57:49;;;;;;;93.37;37.57;;;;;;;;;;5040466;28;20502;-67
2023/12/10 07:00:17;;;;;;;91.93;38.97;;;;;;;;;;5074557;28;20444;-67
2023/12/10 07:02:44;;;;;;;91.20;39.90;;;;;;;;;;5057649;28;20434;-67
2023/12/10 07:05:11;;;;;;;95.77;38.63;;;;;;;;;;5074461;28;20449;-67
2023/12/10 07:07:37;;;;;;;96.73;38.23;;;;;;;;;;5056637;28;20436;-67
2023/12/10 07:10:04;;;;;;;91.67;36.70;;;;;;;;;;5040108;28;20470;-67
2023/12/10 07:12:31;;;;;;;97.33;39.30;;;;;;;;;;5056799;28;20424;-67
2023/12/10 07:14:59;;;;;;;87.57;36.13;;;;;;;;;;5074281;28;20468;-67
2023/12/10 07:17:26;;;;;;;94.60;37.00;;;;;;;;;;5057245;28;20438;-66
2023/12/10 07:19:52;;;;;;;87.03;34.87;;;;;;;;;;5074392;28;20424;-66
2023/12/10 07:22:22;;;;;;;92.83;37.93;;;;;;;;;;5074520;28;20419;-66
2023/12/10 07:24:52;;;;;;;91.67;36.93;;;;;;;;;;5074502;28;20424;-66
2023/12/10 07:27:19;;;;;;;96.53;38.93;;;;;;;;;;5074562;28;20459;-66
2023/12/10 07:29:46;;;;;;;72.80;27.77;;;;;;;;;;5074112;28;20420;-66
2023/12/10 07:32:13;;;;;;;98.63;39.33;;;;;;;;;;5067066;28;20435;-66
2023/12/10 07:34:40;;;;;;;96.97;39.57;;;;;;;;;;5056614;28;20806;-66
2023/12/10 07:37:07;;;;;;;102.23;38.80;;;;;;;;;;5056579;28;20412;-66
2023/12/10 07:39:34;;;;;;;92.10;33.97;;;;;;;;;;5072810;28;20482;-66
2023/12/10 07:42:02;;;;;;;108.47;42.70;;;;;;;;;;5084747;28;20526;-66
2023/12/10 07:44:28;;;;;;;105.90;44.27;;;;;;;;;;5076283;28;20920;-66
2023/12/10 07:46:56;;;;;;;88.67;38.43;;;;;;;;;;5094736;28;20429;-67
2023/12/10 07:49:23;;;;;;;90.60;37.97;;;;;;;;;;5076003;28;20434;-65
2023/12/10 07:51:50;;;;;;;93.80;38.87;;;;;;;;;;5076201;28;20504;-65
2023/12/10 07:54:17;;;;;;;88.67;39.63;;;;;;;;;;5076179;28;20423;-65
2023/12/10 07:56:45;;;;;;;83.87;38.17;;;;;;;;;;5076039;28;20463;-65
2023/12/10 07:59:12;;;;;;;85.97;36.67;;;;;;;;;;5094035;28;20461;-65
2023/12/10 08:09:38;;;;;;;85.17;36.77;;;;;;;;;;5093976;28;20493;-65
2023/12/10 08:12:06;;;;;;;85.13;37.73;;;;;;;;;;5092668;28;20492;-65
2023/12/10 08:14:33;;;;;;;79.37;36.63;;;;;;;;;;5094105;28;20936;-65
2023/12/10 08:17:00;;;;;;;88.73;37.23;;;;;;;;;;5093682;28;20442;-66
2023/12/10 08:19:26;;;;;;;86.93;36.70;;;;;;;;;;5076037;28;20456;-65
2023/12/10 08:21:53;;;;;;;90.40;39.47;;;;;;;;;;5075017;28;20467;-65
2023/12/10 08:24:21;;;;;;;88.10;37.97;;;;;;;;;;5076706;28;20507;-65
2023/12/10 08:26:49;;;;;;;80.50;36.77;;;;;;;;;;5075979;28;20423;-65
2023/12/10 08:29:16;;;;;;;89.33;38.60;;;;;;;;;;5060637;28;20476;-65
2023/12/10 08:31:42;;;;;;;89.07;40.23;;;;;;;;;;5079954;28;20435;-65
2023/12/10 08:34:27;;;;;;;89.33;37.87;;;;;;;;;;5098357;28;20397;-65
2023/12/10 08:36:54;;;;;;;82.10;38.13;;;;;;;;;;5098061;28;20925;-65
2023/12/10 08:39:21;;;;;;;93.83;40.60;;;;;;;;;;5097621;28;20411;-66
2023/12/10 08:41:49;;;;;;;91.03;39.97;;;;;;;;;;5079460;28;20431;-66
2023/12/10 08:44:16;;;;;;;91.97;40.47;;;;;;;;;;5063026;28;20918;-66
2023/12/10 08:46:43;;;;;;;91.57;40.07;;;;;;;;;;5097272;28;20434;-66
2023/12/10 08:49:10;;;;;;;97.70;43.00;;;;;;;;;;5079252;28;20428;-66
2023/12/10 08:51:37;;;;;;;94.73;40.97;;;;;;;;;;5079255;28;20463;-66
2023/12/10 08:54:04;;;;;;;95.50;38.97;;;;;;;;;;5079622;28;20443;-66
2023/12/10 08:56:32;;;;;;;94.60;40.40;;;;;;;;;;5098017;28;20463;-66
2023/12/10 08:59:01;;;;;;;92.17;41.03;;;;;;;;;;5096443;28;20910;-68
2023/12/10 09:01:28;;;;;;;96.90;40.47;;;;;;;;;;5079592;28;20720;-66
2023/12/10 09:03:55;;;;;;;85.07;39.90;;;;;;;;;;5079692;28;20529;-68
2023/12/10 09:06:22;;;;;;;92.03;41.00;;;;;;;;;;5079918;28;20441;-66
2023/12/10 09:08:49;;;;;;;98.20;40.37;;;;;;;;;;5062860;28;20431;-66
2023/12/10 09:11:16;;;;;;;96.13;42.20;;;;;;;;;;5079085;28;20506;-66
2023/12/10 09:13:43;;;;;;;90.57;40.40;;;;;;;;;;5079171;28;20431;-66
2023/12/10 09:16:10;;;;;;;95.03;41.17;;;;;;;;;;5079385;28;20546;-68
2023/12/10 09:18:38;;;;;;;89.07;37.70;;;;;;;;;;5097150;28;20423;-67
2023/12/10 09:21:07;;;;;;;90.10;38.50;;;;;;;;;;5096218;28;20972;-67
2023/12/10 09:23:52;;;;;;;89.40;40.97;;;;;;;;;;5082001;28;20756;-67
2023/12/10 09:26:19;;;;;;;92.57;42.30;;;;;;;;;;5096974;28;20423;-67
2023/12/10 09:29:04;;;;;;;82.17;37.40;;;;;;;;;;5081493;28;20399;-68
2023/12/10 09:31:31;;;;;;;88.80;40.30;;;;;;;;;;5079360;28;20921;-66
2023/12/10 09:33:59;;;;;;;86.60;37.97;;;;;;;;;;5079658;28;20427;-66
2023/12/10 09:36:26;;;;;;;89.00;40.30;;;;;;;;;;5078770;28;20558;-66
2023/12/10 09:38:53;;;;;;;93.87;40.50;;;;;;;;;;5097070;28;20436;-67
2023/12/10 09:41:20;;;;;;;88.70;41.27;;;;;;;;;;5078716;28;20447;-66
2023/12/10 09:43:47;;;;;;;91.43;39.87;;;;;;;;;;5096540;28;20469;-66
2023/12/10 09:46:14;;;;;;;91.27;40.17;;;;;;;;;;5078501;28;20427;-67
2023/12/10 09:49:01;;;;;;;91.40;39.73;;;;;;;;;;5081658;28;20840;-68
2023/12/10 09:51:29;;;;;;;90.30;41.90;;;;;;;;;;5078704;28;20447;-67
2023/12/10 09:53:59;;;;;;;104.30;44.90;;;;;;;;;;5078306;28;20915;-67
2023/12/10 09:56:25;;;;;;;86.00;40.20;;;;;;;;;;5078226;28;20501;-68
2023/12/10 09:58:52;;;;;;;85.13;39.43;;;;;;;;;;5078201;28;20489;-67
2023/12/10 10:01:19;;;;;;;83.80;40.70;;;;;;;;;;5094321;28;20421;-67
2023/12/10 10:03:46;;;;;;;93.47;41.63;;;;;;;;;;5061924;28;20497;-67
2023/12/10 10:06:13;;;;;;;88.10;40.70;;;;;;;;;;5079000;28;20431;-67
2023/12/10 10:08:41;;;;;;;90.23;41.03;;;;;;;;;;5096313;28;20438;-67
2023/12/10 10:11:08;;;;;;;91.97;40.93;;;;;;;;;;5061622;28;20526;-66
2023/12/10 10:13:35;;;;;;;91.90;41.97;;;;;;;;;;5078147;28;20459;-67
2023/12/10 10:16:09;;;;;;;85.73;39.50;;;;;;;;;;5095878;28;20471;-67
2023/12/10 10:18:41;;;;;;;84.23;37.40;;;;;;;;;;5078365;28;20478;-67
2023/12/10 10:21:25;;;;;;;86.07;40.90;;;;;;;;;;5081604;28;20442;-67
2023/12/10 10:23:53;;;;;;;87.73;39.23;;;;;;;;;;5092136;28;20514;-65
2023/12/10 10:26:20;;;;;;;86.03;41.97;;;;;;;;;;5077975;28;20522;-66
2023/12/10 10:28:47;;;;;;;81.53;38.57;;;;;;;;;;5061540;28;20427;-66
2023/12/10 10:31:14;;;;;;;82.00;38.70;;;;;;;;;;5061888;28;20436;-66
2023/12/10 10:33:42;;;;;;;85.63;38.13;;;;;;;;;;5077480;28;20417;-66
2023/12/10 10:36:09;;;;;;;72.70;36.40;;;;;;;;;;5061739;28;20771;-66
2023/12/10 10:38:36;;;;;;;84.50;39.60;;;;;;;;;;5060854;28;20439;-66
2023/12/10 10:41:20;;;;;;;75.57;37.47;;;;;;;;;;5079965;28;20400;-60
2023/12/10 10:43:47;;;;;;;79.00;37.53;;;;;;;;;;5095102;28;20411;-63
2023/12/10 10:46:31;;;;;;;76.30;36.67;;;;;;;;;;5095837;28;20388;-63
2023/12/10 10:48:58;;;;;;;73.20;35.20;;;;;;;;;;5077495;28;20435;-65
2023/12/10 10:51:42;;;;;;;80.00;37.70;;;;;;;;;;5080390;28;20446;-64
2023/12/10 10:54:09;;;;;;;72.03;36.53;;;;;;;;;;5076472;28;20433;-68
2023/12/10 10:56:36;;;;;;;82.10;37.13;;;;;;;;;;5060633;28;20989;-67
2023/12/10 10:59:03;;;;;;;80.50;39.50;;;;;;;;;;5060712;28;20428;-68
2023/12/10 11:01:35;;;;;;;71.93;35.00;;;;;;;;;;5059991;28;20435;-72
2023/12/10 11:04:03;;;;;;;73.57;36.00;;;;;;;;;;5060433;28;20442;-72
2023/12/10 11:06:30;;;;;;;74.10;36.70;;;;;;;;;;5095046;28;20423;-72
2023/12/10 11:08:58;;;;;;;71.33;34.13;;;;;;;;;;5076839;28;20433;-72
2023/12/10 11:11:26;;;;;;;78.67;36.27;;;;;;;;;;5094387;28;20431;-71
2023/12/10 11:13:55;;;;;;;83.43;37.80;;;;;;;;;;5061456;28;20466;-72
2023/12/10 11:16:22;;;;;;;78.77;35.80;;;;;;;;;;5059916;28;20463;-69
2023/12/10 11:18:52;;;;;;;81.10;37.37;;;;;;;;;;5076581;28;20490;-69
2023/12/10 11:21:20;;;;;;;86.10;39.93;;;;;;;;;;5059988;28;20450;-69
2023/12/10 11:23:47;;;;;;;84.47;39.13;;;;;;;;;;5094353;28;20431;-69
2023/12/10 11:26:16;;;;;;;74.70;37.00;;;;;;;;;;5059867;28;20826;-71
2023/12/10 11:28:43;;;;;;;70.27;34.77;;;;;;;;;;5094644;28;20428;-70
2023/12/10 11:31:10;;;;;;;70.17;35.27;;;;;;;;;;5076325;28;20435;-70
2023/12/10 11:33:40;;;;;;;74.77;35.83;;;;;;;;;;5076352;28;20466;-70
2023/12/10 11:36:08;;;;;;;74.03;37.10;;;;;;;;;;5094179;28;20821;-71
2023/12/10 11:38:55;;;;;;;68.07;34.03;;;;;;;;;;5079679;28;20422;-70
2023/12/10 11:41:27;;;;;;;70.77;35.00;;;;;;;;;;5077822;28;20408;-70
2023/12/10 11:43:54;;;;;;;65.77;33.37;;;;;;;;;;5094358;28;20419;-70
2023/12/10 11:46:22;;;;;;;76.23;36.83;;;;;;;;;;5060013;28;20527;-70
2023/12/10 11:49:00;;;;;;;68.70;34.10;;;;;;;;;;5061210;28;20907;-70
2023/12/10 11:51:28;;;;;;;71.93;34.13;;;;;;;;;;5040198;28;20561;-70
2023/12/10 11:58:13;;;;;;;69.23;33.97;;;;;;;;;;5044132;28;20420;-70
2023/12/10 12:08:26;;;;;;;70.43;33.33;;;;;;;;;;5044495;28;20463;-69
2023/12/10 12:10:54;;;;;;;75.83;35.40;;;;;;;;;;5042886;28;20461;-71
2023/12/10 12:13:20;;;;;;;82.00;38.63;;;;;;;;;;5043105;28;20426;-69
2023/12/10 12:15:47;;;;;;;79.63;35.40;;;;;;;;;;5042748;28;20484;-69
2023/12/10 12:18:14;;;;;;;77.73;36.43;;;;;;;;;;5020728;28;20445;-69
2023/12/10 12:20:41;;;;;;;76.80;37.00;;;;;;;;;;5058700;28;20443;-69
2023/12/10 12:23:08;;;;;;;76.17;35.83;;;;;;;;;;5025135;28;20979;-73
2023/12/10 12:29:35;;;;;;;73.33;33.93;;;;;;;;;;5024451;28;20426;-69
2023/12/10 12:32:02;;;;;;;75.00;36.77;;;;;;;;;;5023008;28;20437;-70
2023/12/10 12:34:57;;;;;;;77.53;36.20;;;;;;;;;;5040585;28;20480;-69
2023/12/10 12:37:24;;;;;;;75.90;37.17;;;;;;;;;;5042310;28;20494;-70
2023/12/10 12:47:45;;;;;;;77.97;36.43;;;;;;;;;;5063692;28;20398;-71
2023/12/10 12:50:12;;;;;;;80.80;36.20;;;;;;;;;;5040035;28;20819;-72
2023/12/10 12:53:04;;;;;;;80.53;37.87;;;;;;;;;;5035685;28;20459;-70
2023/12/10 12:55:57;;;;;;;85.40;37.47;;;;;;;;;;5065330;28;20442;-71
2023/12/10 12:58:24;;;;;;;78.43;35.53;;;;;;;;;;5048906;28;20543;-70
2023/12/10 13:00:51;;;;;;;81.23;37.27;;;;;;;;;;5065958;28;20439;-71
2023/12/10 13:03:18;;;;;;;80.87;36.03;;;;;;;;;;5049111;28;20442;-70
2023/12/10 13:05:45;;;;;;;77.03;35.30;;;;;;;;;;5065724;28;20446;-71
2023/12/10 13:08:13;;;;;;;85.67;38.37;;;;;;;;;;5064696;28;20423;-73
2023/12/10 13:10:39;;;;;;;76.50;36.97;;;;;;;;;;5065805;28;20520;-72
2023/12/10 13:13:24;;;;;;;76.23;36.27;;;;;;;;;;5037458;28;20545;-71
2023/12/10 13:15:50;;;;;;;77.03;35.07;;;;;;;;;;5065192;28;20439;-71
2023/12/10 13:18:34;;;;;;;80.77;37.80;;;;;;;;;;5054531;28;20452;-72
2023/12/10 13:21:01;;;;;;;92.93;38.60;;;;;;;;;;5051791;28;20478;-72
2023/12/10 13:23:36;;;;;;;95.73;43.40;;;;;;;;;;5070018;28;20433;-72
2023/12/10 13:26:03;;;;;;;80.77;37.57;;;;;;;;;;5052896;28;21653;-72
2023/12/10 13:28:30;;;;;;;83.07;38.87;;;;;;;;;;5052159;28;20528;-71
2023/12/10 13:30:57;;;;;;;89.23;40.33;;;;;;;;;;5052409;28;20431;-72
2023/12/10 13:33:24;;;;;;;74.97;36.33;;;;;;;;;;5052822;28;20423;-71
2023/12/10 13:35:52;;;;;;;78.13;36.90;;;;;;;;;;5065573;28;20444;-71
2023/12/10 13:38:20;;;;;;;79.07;35.27;;;;;;;;;;5048732;28;20653;-70
2023/12/10 13:40:47;;;;;;;81.90;38.63;;;;;;;;;;5048231;28;20927;-70
2023/12/10 13:47:15;;;;;;;79.73;37.33;;;;;;;;;;5086627;28;20406;-72
2023/12/10 13:49:42;;;;;;;82.13;36.43;;;;;;;;;;5034622;28;20455;-71
2023/12/10 13:52:09;;;;;;;81.73;37.53;;;;;;;;;;5056568;28;21032;-71
2023/12/10 13:54:36;;;;;;;80.77;36.93;;;;;;;;;;5067952;28;20454;-70
2023/12/10 13:57:03;;;;;;;74.57;34.13;;;;;;;;;;5068614;28;20466;-72
2023/12/10 13:59:31;;;;;;;81.03;36.87;;;;;;;;;;5066455;28;20448;-71
2023/12/10 14:01:59;;;;;;;83.60;36.13;;;;;;;;;;5068438;28;20932;-68
2023/12/10 14:07:40;;;;;;;84.50;37.30;;;;;;;;;;5066179;28;20420;-72
2023/12/10 14:14:00;;;;;;;74.27;33.60;;;;;;;;;;5066530;28;20399;-73
2023/12/10 14:16:29;;;;;;;82.60;36.47;;;;;;;;;;5057683;28;20994;-73
2023/12/10 14:18:56;;;;;;;90.57;39.70;;;;;;;;;;5057992;28;20743;-72
2023/12/10 14:21:25;;;;;;;76.27;34.73;;;;;;;;;;5041363;28;20428;-75
2023/12/10 14:27:52;;;;;;;80.17;35.83;;;;;;;;;;5089003;28;20426;-70
2023/12/10 14:30:20;;;;;;;85.97;38.07;;;;;;;;;;5077712;28;20485;-71
2023/12/10 14:32:47;;;;;;;70.90;30.30;;;;;;;;;;5085910;28;20436;-70
2023/12/10 14:35:14;;;;;;;83.40;33.00;;;;;;;;;;5051334;28;20621;-71
2023/12/10 14:41:35;;;;;;;107.43;47.20;;;;;;;;;;5106449;28;20410;-75
2023/12/10 14:44:02;;;;;;;140.17;58.40;;;;;;;;;;5071252;28;20443;-71
2023/12/10 14:46:30;;;;;;;139.40;58.40;;;;;;;;;;5105857;28;20419;-70
2023/12/10 14:56:57;;;;;;;99.90;39.67;;;;;;;;;;5106291;28;20469;-71
2023/12/10 14:59:28;;;;;;;95.50;40.97;;;;;;;;;;5105817;28;20462;-74
2023/12/10 15:01:54;;;;;;;83.17;37.27;;;;;;;;;;5057966;28;20830;-71
2023/12/10 15:04:36;;;;;;;95.17;38.60;;;;;;;;;;5073341;28;20804;-71
2023/12/10 15:07:03;;;;;;;75.67;35.00;;;;;;;;;;5106087;28;20435;-71
2023/12/10 15:09:30;;;;;;;76.27;35.33;;;;;;;;;;5071072;28;20430;-73
2023/12/10 15:11:57;;;;;;;78.50;36.73;;;;;;;;;;5071128;28;20423;-71
2023/12/10 15:14:24;;;;;;;72.70;32.70;;;;;;;;;;5075699;28;20423;-72
2023/12/10 15:16:53;;;;;;;78.67;34.80;;;;;;;;;;5103427;28;20466;-71
2023/12/10 15:19:24;;;;;;;79.73;35.53;;;;;;;;;;5106137;28;20925;-72
2023/12/10 15:22:11;;;;;;;73.33;34.03;;;;;;;;;;5076052;28;20395;-70
2023/12/10 15:24:38;;;;;;;77.33;35.00;;;;;;;;;;5087516;28;20509;-72
2023/12/10 15:27:05;;;;;;;77.70;34.80;;;;;;;;;;5087411;28;21197;-72
2023/12/10 15:29:33;;;;;;;73.27;32.43;;;;;;;;;;5070456;28;20830;-72
2023/12/10 15:32:00;;;;;;;71.33;32.47;;;;;;;;;;5087523;28;20877;-71
2023/12/10 15:34:29;;;;;;;75.77;33.87;;;;;;;;;;5053678;28;20466;-71
2023/12/10 15:36:56;;;;;;;74.50;33.43;;;;;;;;;;5104063;28;20469;-71
2023/12/10 15:39:23;;;;;;;78.27;34.27;;;;;;;;;;5070068;28;20522;-72
2023/12/10 15:41:52;;;;;;;79.00;33.90;;;;;;;;;;5070108;28;20978;-72
2023/12/10 15:44:19;;;;;;;71.37;33.23;;;;;;;;;;5070459;28;20452;-73
2023/12/10 15:46:46;;;;;;;77.47;32.43;;;;;;;;;;5103683;28;20489;-72
2023/12/10 15:49:13;;;;;;;76.00;33.20;;;;;;;;;;5087027;28;20442;-73
2023/12/10 15:51:40;;;;;;;75.83;32.97;;;;;;;;;;5074468;28;20466;-72
2023/12/10 15:54:08;;;;;;;71.17;33.20;;;;;;;;;;5104600;28;20761;-71
2023/12/10 15:56:52;;;;;;;76.87;32.90;;;;;;;;;;5082459;28;20542;-70